createdAt,value
2018-10-05T00:01:34.375Z,92.90
2018-10-05T00:04:02.645Z,92.90
2018-10-05T00:06:30.928Z,92.90
2018-10-05T00:08:59.144Z,93.00
2018-10-05T00:11:27.383Z,93.10
2018-10-05T00:13:55.619Z,93.10
2018-10-05T00:16:23.943Z,93.10
2018-10-05T00:18:52.167Z,93.00
2018-10-05T00:21:20.428Z,93.10
2018-10-05T00:23:48.655Z,93.20
2018-10-05T00:26:16.876Z,93.30
2018-10-05T00:28:45.189Z,93.30
2018-10-05T00:31:13.437Z,93.40
2018-10-05T00:33:41.658Z,93.40
2018-10-05T00:36:09.898Z,93.50
2018-10-05T00:38:38.144Z,93.50
2018-10-05T00:41:06.403Z,93.60
2018-10-05T00:43:34.761Z,93.70
2018-10-05T00:46:02.975Z,93.70
2018-10-05T00:48:31.312Z,93.70
2018-10-05T00:50:59.567Z,93.80
2018-10-05T00:53:28.632Z,93.90
2018-10-05T00:55:57.753Z,93.90
2018-10-05T00:58:25.972Z,93.90
2018-10-05T01:00:54.311Z,94.10
2018-10-05T01:03:22.530Z,94.10
2018-10-05T01:05:50.771Z,94.20
2018-10-05T01:08:18.992Z,94.20
2018-10-05T01:10:47.243Z,94.20
2018-10-05T01:13:15.461Z,94.20
2018-10-05T01:15:44.001Z,94.40
2018-10-05T01:18:12.214Z,94.50
2018-10-05T01:20:40.473Z,94.50
2018-10-05T01:23:08.720Z,94.50
2018-10-05T01:25:37.006Z,94.60
2018-10-05T01:28:05.267Z,94.60
2018-10-05T01:30:33.491Z,94.70
2018-10-05T01:33:01.750Z,94.80
2018-10-05T01:35:30.099Z,94.80
2018-10-05T01:37:58.375Z,94.90
2018-10-05T01:40:26.591Z,95.00
2018-10-05T01:42:54.807Z,95.10
2018-10-05T01:45:23.055Z,95.10
2018-10-05T01:47:51.348Z,95.10
2018-10-05T01:50:19.607Z,95.20
2018-10-05T01:52:47.855Z,95.20
2018-10-05T01:55:16.183Z,95.30
2018-10-05T01:57:44.531Z,95.50
2018-10-05T02:00:12.757Z,95.50
2018-10-05T02:02:41.034Z,95.60
2018-10-05T02:05:09.592Z,95.60
2018-10-05T02:07:37.939Z,95.70
2018-10-05T02:10:06.175Z,95.80
2018-10-05T02:12:34.419Z,96.10
2018-10-05T02:15:02.691Z,95.90
2018-10-05T02:17:30.888Z,96.00
2018-10-05T02:19:59.301Z,96.10
2018-10-05T02:22:27.587Z,96.10
2018-10-05T02:24:55.803Z,96.20
2018-10-05T02:27:24.059Z,96.30
2018-10-05T02:29:52.300Z,96.40
2018-10-05T02:32:20.541Z,96.40
2018-10-05T02:34:48.834Z,96.40
2018-10-05T02:37:17.103Z,96.50
2018-10-05T02:39:45.351Z,96.60
2018-10-05T02:42:13.713Z,96.60
2018-10-05T02:44:41.943Z,96.70
2018-10-05T02:47:10.200Z,96.70
2018-10-05T02:49:38.442Z,96.80
2018-10-05T02:52:06.734Z,96.90
2018-10-05T02:54:34.932Z,97.00
2018-10-05T02:57:03.195Z,97.10
2018-10-05T02:59:31.403Z,97.10
2018-10-05T03:02:10.953Z,97.10
2018-10-05T03:04:39.188Z,97.30
2018-10-05T03:07:07.437Z,97.30
2018-10-05T03:09:35.650Z,97.40
2018-10-05T03:12:03.883Z,97.50
2018-10-05T03:14:32.507Z,97.60
2018-10-05T03:17:00.779Z,97.60
2018-10-05T03:19:29.092Z,97.70
2018-10-05T03:21:57.311Z,97.70
2018-10-05T03:24:25.703Z,97.80
2018-10-05T03:26:53.960Z,97.80
2018-10-05T03:29:22.198Z,97.90
2018-10-05T03:31:50.421Z,98.00
2018-10-05T03:34:18.646Z,98.10
2018-10-05T03:36:46.887Z,98.50
2018-10-05T03:39:15.623Z,98.20
2018-10-05T03:41:43.835Z,98.20
2018-10-05T03:44:12.104Z,98.20
2018-10-05T03:46:40.363Z,98.30
2018-10-05T03:49:08.624Z,98.30
2018-10-05T03:51:36.886Z,98.40
2018-10-05T03:54:05.287Z,98.50
2018-10-05T03:56:33.544Z,98.60
2018-10-05T03:59:01.770Z,98.60
2018-10-05T04:01:30.120Z,98.60
2018-10-05T04:03:58.433Z,98.70
2018-10-05T04:06:26.750Z,98.70
2018-10-05T04:08:54.988Z,98.70
2018-10-05T04:11:23.218Z,98.80
2018-10-05T04:13:51.407Z,98.80
2018-10-05T04:16:19.776Z,98.80
2018-10-05T04:18:48.015Z,98.80
2018-10-05T04:21:16.247Z,98.80
2018-10-05T04:23:44.530Z,98.90
2018-10-05T04:26:12.740Z,99.00
2018-10-05T04:28:41.006Z,99.10
2018-10-05T04:31:09.231Z,99.20
2018-10-05T04:33:37.613Z,99.10
2018-10-05T04:36:05.836Z,99.20
2018-10-05T04:38:34.171Z,99.40
2018-10-05T04:41:02.444Z,99.50
2018-10-05T04:43:30.648Z,99.40
2018-10-05T04:45:58.845Z,99.40
2018-10-05T04:48:27.059Z,99.60
2018-10-05T04:50:55.322Z,99.60
2018-10-05T04:53:23.667Z,99.70
2018-10-05T04:55:51.907Z,99.80
2018-10-05T04:58:20.131Z,99.80
2018-10-05T05:00:49.317Z,99.90
2018-10-05T05:03:17.528Z,99.90
2018-10-05T05:05:45.772Z,99.80
2018-10-05T05:08:13.980Z,99.80
2018-10-05T05:10:42.226Z,99.80
2018-10-05T05:13:10.436Z,99.90
2018-10-05T05:15:38.743Z,99.90
2018-10-05T05:18:07.059Z,99.90
2018-10-05T05:20:35.315Z,99.90
2018-10-05T05:23:04.088Z,99.90
2018-10-05T05:25:32.552Z,99.90
2018-10-05T05:28:00.816Z,99.90
2018-10-05T05:30:29.055Z,99.90
2018-10-05T05:32:57.299Z,99.90
2018-10-05T05:35:25.981Z,99.90
2018-10-05T05:37:54.375Z,99.90
2018-10-05T05:40:22.724Z,99.90
2018-10-05T05:42:50.911Z,99.90
2018-10-05T05:45:19.304Z,99.90
2018-10-05T05:47:47.596Z,99.90
2018-10-05T05:50:15.911Z,99.90
2018-10-05T05:52:44.143Z,99.90
2018-10-05T05:55:12.395Z,99.90
2018-10-05T05:57:40.631Z,99.90
2018-10-05T06:00:08.892Z,99.90
2018-10-05T06:02:37.312Z,99.90
2018-10-05T06:05:05.639Z,99.90
2018-10-05T06:07:33.873Z,99.90
2018-10-05T06:10:02.110Z,99.90
2018-10-05T06:12:30.361Z,99.90
2018-10-05T06:14:58.742Z,99.90
2018-10-05T06:17:27.026Z,99.90
2018-10-05T06:19:55.261Z,99.90
2018-10-05T06:22:23.666Z,99.90
2018-10-05T06:24:51.755Z,99.90
2018-10-05T06:27:20.067Z,99.90
2018-10-05T06:29:48.578Z,99.90
2018-10-05T06:32:16.802Z,99.90
2018-10-05T06:34:45.014Z,99.90
2018-10-05T06:37:13.248Z,99.90
2018-10-05T06:39:41.657Z,99.90
2018-10-05T06:42:10.010Z,99.90
2018-10-05T06:44:38.330Z,99.90
2018-10-05T06:47:06.565Z,99.90
2018-10-05T06:49:34.804Z,99.80
2018-10-05T06:52:02.999Z,99.60
2018-10-05T06:54:31.289Z,99.40
2018-10-05T06:56:59.543Z,99.20
2018-10-05T06:59:28.216Z,99.10
2018-10-05T07:01:56.917Z,98.80
2018-10-05T07:04:25.372Z,98.70
2018-10-05T07:06:54.081Z,98.50
2018-10-05T07:09:22.768Z,98.40
2018-10-05T07:11:51.148Z,98.40
2018-10-05T07:14:20.191Z,98.30
2018-10-05T07:16:48.893Z,98.00
2018-10-05T07:19:17.307Z,97.80
2018-10-05T07:21:46.614Z,97.70
2018-10-05T07:24:15.802Z,97.60
2018-10-05T07:26:44.874Z,97.60
2018-10-05T07:29:13.894Z,97.50
2018-10-05T07:31:42.142Z,97.50
2018-10-05T07:34:10.371Z,97.40
2018-10-05T07:36:38.691Z,97.30
2018-10-05T07:39:07.940Z,97.30
2018-10-05T07:41:36.151Z,97.30
2018-10-05T07:44:04.486Z,97.20
2018-10-05T07:46:32.711Z,97.20
2018-10-05T07:49:00.970Z,97.20
2018-10-05T07:51:29.305Z,97.20
2018-10-05T07:53:57.603Z,97.10
2018-10-05T07:56:25.879Z,97.10
2018-10-05T07:58:54.175Z,97.00
2018-10-05T08:01:22.436Z,97.00
2018-10-05T08:03:50.802Z,97.00
2018-10-05T08:06:19.019Z,97.00
2018-10-05T08:08:47.233Z,97.00
2018-10-05T08:11:15.475Z,97.00
2018-10-05T08:13:43.803Z,96.80
2018-10-05T08:16:12.021Z,96.80
2018-10-05T08:18:40.275Z,96.70
2018-10-05T08:21:08.526Z,96.60
2018-10-05T08:23:36.848Z,96.50
2018-10-05T08:26:05.095Z,96.30
2018-10-05T08:28:33.347Z,96.20
2018-10-05T08:31:01.672Z,96.10
2018-10-05T08:33:29.896Z,96.10
2018-10-05T08:35:58.184Z,96.10
2018-10-05T08:38:26.399Z,96.10
2018-10-05T08:40:54.647Z,96.10
2018-10-05T08:43:23.127Z,96.10
2018-10-05T08:45:51.373Z,95.90
2018-10-05T08:48:19.606Z,95.80
2018-10-05T08:50:47.863Z,95.70
2018-10-05T08:53:16.701Z,95.60
2018-10-05T08:55:45.378Z,95.60
2018-10-05T08:58:13.590Z,95.60
2018-10-05T09:00:41.889Z,95.50
2018-10-05T09:03:10.106Z,95.30
2018-10-05T09:05:38.433Z,95.20
2018-10-05T09:08:06.635Z,95.10
2018-10-05T09:10:34.917Z,95.00
2018-10-05T09:13:03.173Z,94.90
2018-10-05T09:15:32.315Z,94.80
2018-10-05T09:18:00.660Z,94.70
2018-10-05T09:20:28.870Z,94.60
2018-10-05T09:22:57.135Z,94.60
2018-10-05T09:25:25.351Z,94.60
2018-10-05T09:27:53.611Z,94.50
2018-10-05T09:30:21.879Z,94.40
2018-10-05T09:32:50.140Z,94.20
2018-10-05T09:35:18.556Z,94.00
2018-10-05T09:37:46.813Z,94.00
2018-10-05T09:40:15.381Z,94.00
2018-10-05T09:42:43.865Z,93.70
2018-10-05T09:45:12.196Z,93.60
2018-10-05T09:47:40.495Z,93.40
2018-10-05T09:50:08.774Z,93.30
2018-10-05T09:52:37.044Z,93.10
2018-10-05T09:55:05.407Z,93.20
2018-10-05T09:57:33.741Z,92.80
2018-10-05T10:00:02.118Z,92.70
2018-10-05T10:02:35.558Z,92.20
2018-10-05T10:05:04.080Z,92.00
2018-10-05T10:07:32.343Z,91.80
2018-10-05T10:10:00.817Z,91.70
2018-10-05T10:12:29.051Z,91.40
2018-10-05T10:14:57.300Z,91.40
2018-10-05T10:17:25.561Z,91.20
2018-10-05T10:19:53.775Z,90.90
2018-10-05T10:22:22.417Z,90.50
2018-10-05T10:24:50.626Z,90.60
2018-10-05T10:27:18.887Z,90.00
2018-10-05T10:29:47.150Z,90.00
2018-10-05T10:32:15.382Z,89.70
2018-10-05T10:34:44.099Z,89.50
2018-10-05T10:37:12.298Z,89.40
2018-10-05T10:39:40.541Z,89.20
2018-10-05T10:42:08.793Z,89.10
2018-10-05T10:44:37.038Z,88.50
2018-10-05T10:47:05.499Z,88.60
2018-10-05T10:49:33.764Z,88.50
2018-10-05T10:52:02.000Z,88.20
2018-10-05T10:54:30.311Z,88.00
2018-10-05T10:56:58.580Z,87.60
2018-10-05T10:59:27.004Z,87.10
2018-10-05T11:01:55.268Z,86.70
2018-10-05T11:04:23.680Z,86.00
2018-10-05T11:06:51.905Z,85.70
2018-10-05T11:09:20.151Z,84.70
2018-10-05T11:11:48.565Z,83.60
2018-10-05T11:14:16.803Z,83.40
2018-10-05T11:16:45.028Z,82.90
2018-10-05T11:19:13.226Z,82.50
2018-10-05T11:21:41.471Z,81.00
2018-10-05T11:24:09.920Z,80.60
2018-10-05T11:26:38.166Z,80.50
2018-10-05T11:29:06.400Z,80.30
2018-10-05T11:31:34.659Z,80.10
2018-10-05T11:34:03.011Z,79.40
2018-10-05T11:36:31.308Z,77.90
2018-10-05T11:38:59.577Z,77.80
2018-10-05T11:41:27.873Z,77.50
2018-10-05T11:43:56.106Z,76.70
2018-10-05T11:46:24.428Z,76.30
2018-10-05T11:48:52.597Z,75.90
2018-10-05T11:51:20.828Z,75.00
2018-10-05T11:53:49.280Z,74.80
2018-10-05T11:56:17.529Z,74.30
2018-10-05T11:58:45.792Z,73.70
2018-10-05T12:01:14.024Z,72.60
2018-10-05T12:03:42.335Z,72.40
2018-10-05T12:06:10.572Z,72.60
2018-10-05T12:08:38.840Z,71.90
2018-10-05T12:11:07.319Z,71.20
2018-10-05T12:13:35.607Z,71.10
2018-10-05T12:16:03.826Z,70.90
2018-10-05T12:18:32.090Z,70.00
2018-10-05T12:21:00.365Z,69.80
2018-10-05T12:23:28.665Z,69.20
2018-10-05T12:25:56.903Z,69.00
2018-10-05T12:28:25.124Z,68.50
2018-10-05T12:30:53.372Z,66.90
2018-10-05T12:33:21.711Z,66.80
2018-10-05T12:35:50.140Z,66.70
2018-10-05T12:38:18.383Z,66.30
2018-10-05T12:40:53.074Z,66.30
2018-10-05T12:43:21.306Z,64.30
2018-10-05T12:45:49.632Z,63.30
2018-10-05T12:48:17.854Z,63.40
2018-10-05T12:50:46.143Z,63.00
2018-10-05T12:53:14.456Z,61.90
2018-10-05T12:55:42.733Z,60.80
2018-10-05T12:58:11.006Z,60.70
2018-10-05T13:00:39.473Z,60.70
2018-10-05T13:03:07.736Z,60.50
2018-10-05T13:05:36.032Z,59.90
2018-10-05T13:08:04.300Z,60.10
2018-10-05T13:10:32.541Z,59.70
2018-10-05T13:13:00.813Z,59.50
2018-10-05T13:15:29.139Z,59.30
2018-10-05T13:17:57.452Z,57.60
2018-10-05T13:20:25.743Z,55.90
2018-10-05T13:22:54.005Z,52.80
2018-10-05T13:25:22.459Z,50.10
2018-10-05T13:27:50.724Z,47.60
2018-10-05T13:30:19.191Z,44.00
2018-10-05T13:32:47.398Z,42.30
2018-10-05T13:35:15.667Z,40.10
2018-10-05T13:37:43.915Z,37.00
2018-10-05T13:40:12.167Z,34.80
2018-10-05T13:42:40.772Z,32.60
2018-10-05T13:45:08.994Z,32.00
2018-10-05T13:47:37.248Z,30.40
2018-10-05T13:50:06.287Z,28.90
2018-10-05T13:52:34.599Z,27.70
2018-10-05T13:55:03.009Z,27.30
2018-10-05T13:57:31.223Z,26.80
2018-10-05T13:59:59.495Z,26.30
2018-10-05T14:02:27.746Z,26.20
2018-10-05T14:04:56.006Z,25.90
2018-10-05T14:07:24.588Z,25.40
2018-10-05T14:09:52.835Z,24.90
2018-10-05T14:12:21.079Z,24.70
2018-10-05T14:14:49.331Z,24.60
2018-10-05T14:17:17.568Z,24.50
2018-10-05T14:19:45.816Z,23.80
2018-10-05T14:22:14.093Z,23.80
2018-10-05T14:24:42.592Z,23.40
2018-10-05T14:27:10.821Z,23.00
2018-10-05T14:29:39.047Z,23.30
2018-10-05T14:32:07.347Z,23.40
2018-10-05T14:34:35.615Z,23.30
2018-10-05T14:37:03.853Z,23.10
2018-10-05T14:39:32.127Z,22.90
2018-10-05T14:42:00.347Z,22.90
2018-10-05T14:44:28.554Z,23.30
2018-10-05T14:46:56.825Z,22.90
2018-10-05T14:49:25.085Z,22.70
2018-10-05T14:51:53.299Z,22.50
2018-10-05T14:54:21.659Z,23.00
2018-10-05T14:56:49.925Z,22.90
2018-10-05T14:59:18.419Z,22.70
2018-10-05T15:01:46.671Z,22.80
2018-10-05T15:04:14.875Z,22.60
2018-10-05T15:06:43.205Z,23.10
2018-10-05T15:09:11.412Z,22.80
2018-10-05T15:11:39.627Z,22.90
2018-10-05T15:14:07.892Z,23.00
2018-10-05T15:16:36.095Z,23.30
2018-10-05T15:19:04.385Z,23.20
2018-10-05T15:21:32.682Z,23.20
2018-10-05T15:24:00.970Z,23.10
2018-10-05T15:26:29.329Z,23.60
2018-10-05T15:28:58.419Z,23.20
2018-10-05T15:31:26.659Z,23.30
2018-10-05T15:33:54.857Z,23.30
2018-10-05T15:36:23.107Z,23.50
2018-10-05T15:38:51.454Z,23.60
2018-10-05T15:41:19.632Z,23.50
2018-10-05T15:43:47.873Z,23.30
2018-10-05T15:47:18.907Z,23.60
2018-10-05T15:49:47.307Z,23.80
2018-10-05T15:52:15.535Z,24.40
2018-10-05T15:54:43.742Z,24.70
2018-10-05T15:57:11.955Z,24.70
2018-10-05T15:59:40.227Z,24.70
2018-10-05T16:02:08.438Z,24.80
2018-10-05T16:04:36.731Z,25.20
2018-10-05T16:07:04.966Z,25.60
2018-10-05T16:09:33.284Z,26.20
2018-10-05T16:12:01.533Z,27.30
2018-10-05T16:14:29.816Z,28.20
2018-10-05T16:16:58.056Z,29.20
2018-10-05T16:19:26.428Z,30.10
2018-10-05T16:21:54.711Z,31.00
2018-10-05T16:24:35.515Z,32.30
2018-10-05T16:27:03.679Z,33.60
2018-10-05T16:29:31.931Z,34.50
2018-10-05T16:32:00.208Z,35.50
2018-10-05T16:34:28.523Z,36.40
2018-10-05T16:36:56.734Z,37.10
2018-10-05T16:39:25.043Z,38.10
2018-10-05T16:41:53.290Z,38.90
2018-10-05T16:44:21.569Z,39.50
2018-10-05T16:46:49.911Z,40.00
2018-10-05T16:49:18.130Z,40.70
2018-10-05T16:51:46.426Z,41.50
2018-10-05T16:54:14.650Z,41.90
2018-10-05T16:56:42.918Z,42.40
2018-10-05T16:59:11.155Z,43.60
2018-10-05T17:01:39.436Z,43.50
2018-10-05T17:04:07.960Z,43.80
2018-10-05T17:06:36.233Z,44.30
2018-10-05T17:09:07.550Z,44.60
2018-10-05T17:11:37.411Z,44.90
2018-10-05T17:14:05.741Z,45.20
2018-10-05T17:16:33.968Z,45.50
2018-10-05T17:19:02.698Z,45.70
2018-10-05T17:21:33.101Z,46.00
2018-10-05T17:24:02.011Z,46.10
2018-10-05T17:26:30.245Z,46.40
2018-10-05T17:28:58.496Z,46.80
2018-10-05T17:31:26.752Z,47.00
2018-10-05T17:33:55.080Z,47.10
2018-10-05T17:36:23.347Z,47.20
2018-10-05T17:38:51.619Z,47.40
2018-10-05T17:41:19.865Z,47.70
2018-10-05T17:43:48.227Z,47.90
2018-10-05T17:46:16.479Z,48.00
2018-10-05T17:48:44.715Z,48.30
2018-10-05T17:51:12.950Z,48.70
2018-10-05T17:53:41.212Z,48.70
2018-10-05T17:56:09.595Z,48.80
2018-10-05T17:58:38.677Z,48.90
2018-10-05T18:01:07.203Z,49.10
2018-10-05T18:03:35.539Z,49.20
2018-10-05T18:06:03.811Z,49.20
2018-10-05T18:08:32.172Z,49.40
2018-10-05T18:11:00.271Z,49.40
2018-10-05T18:13:28.510Z,49.60
2018-10-05T18:15:56.816Z,49.90
2018-10-05T18:18:25.063Z,50.00
2018-10-05T18:20:53.267Z,50.30
2018-10-05T18:23:21.547Z,50.50
2018-10-05T18:25:49.764Z,50.60
2018-10-05T18:28:17.978Z,50.70
2018-10-05T18:30:46.244Z,50.90
2018-10-05T18:33:14.561Z,51.60
2018-10-05T18:35:42.849Z,51.60
2018-10-05T18:38:11.154Z,51.90
2018-10-05T18:40:39.398Z,52.00
2018-10-05T18:43:07.644Z,52.50
2018-10-05T18:45:35.905Z,52.70
2018-10-05T18:48:04.131Z,52.80
2018-10-05T18:50:32.381Z,53.10
2018-10-05T18:53:00.808Z,53.30
2018-10-05T18:55:29.453Z,53.60
2018-10-05T18:57:57.763Z,53.90
2018-10-05T19:00:26.017Z,54.80
2018-10-05T19:02:54.231Z,54.70
2018-10-05T19:05:23.017Z,55.00
2018-10-05T19:07:51.270Z,55.10
2018-10-05T19:10:20.080Z,55.10
2018-10-05T19:12:49.178Z,55.40
2018-10-05T19:15:17.443Z,56.30
2018-10-05T19:17:45.715Z,55.90
2018-10-05T19:20:14.586Z,56.20
2018-10-05T19:22:43.328Z,56.50
2018-10-05T19:25:11.640Z,56.90
2018-10-05T19:27:40.121Z,57.10
2018-10-05T19:30:08.433Z,57.30
2018-10-05T19:32:36.955Z,57.40
2018-10-05T19:35:05.583Z,57.80
2018-10-05T19:37:34.215Z,58.20
2018-10-05T19:40:02.482Z,58.40
2018-10-05T19:42:30.780Z,58.60
2018-10-05T19:44:59.350Z,58.80
2018-10-05T19:47:27.914Z,59.00
2018-10-05T19:49:56.222Z,59.20
2018-10-05T19:52:24.483Z,59.40
2018-10-05T19:54:52.965Z,59.50
2018-10-05T19:57:21.437Z,59.80
2018-10-05T19:59:49.747Z,60.70
2018-10-05T20:02:18.159Z,59.90
2018-10-05T20:04:46.424Z,59.90
2018-10-05T20:07:14.879Z,60.00
2018-10-05T20:09:43.162Z,60.50
2018-10-05T20:12:11.848Z,61.20
2018-10-05T20:14:40.305Z,61.30
2018-10-05T20:17:08.856Z,61.90
2018-10-05T20:19:37.528Z,62.40
2018-10-05T20:22:08.398Z,62.70
2018-10-05T20:24:36.656Z,62.90
2018-10-05T20:27:05.190Z,63.10
2018-10-05T20:29:33.708Z,63.90
2018-10-05T20:32:02.300Z,63.70
2018-10-05T20:34:30.685Z,63.70
2018-10-05T20:36:59.262Z,64.30
2018-10-05T20:39:27.514Z,64.20
2018-10-05T20:41:56.236Z,64.20
2018-10-05T20:44:24.615Z,64.60
2018-10-05T20:46:53.114Z,65.30
2018-10-05T20:49:21.623Z,65.50
2018-10-05T20:51:50.370Z,65.60
2018-10-05T20:54:18.825Z,66.00
2018-10-05T20:56:47.898Z,66.20
2018-10-05T20:59:16.138Z,66.20
2018-10-05T21:01:44.970Z,66.50
2018-10-05T21:04:13.404Z,67.00
2018-10-05T21:06:41.819Z,67.30
2018-10-05T21:09:11.174Z,67.90
2018-10-05T21:11:39.688Z,68.20
2018-10-05T21:14:08.402Z,68.10
2018-10-05T21:16:36.719Z,68.30
2018-10-05T21:19:05.227Z,69.50
2018-10-05T21:21:33.551Z,68.80
2018-10-05T21:24:01.807Z,69.00
2018-10-05T21:26:30.032Z,69.00
2018-10-05T21:28:58.365Z,69.20
2018-10-05T21:31:26.635Z,69.50
2018-10-05T21:33:55.081Z,70.00
2018-10-05T21:36:23.336Z,70.00
2018-10-05T21:38:51.732Z,69.90
2018-10-05T21:41:19.958Z,70.10
2018-10-05T21:43:48.759Z,70.50
2018-10-05T21:46:17.066Z,70.80
2018-10-05T21:48:45.332Z,71.10
2018-10-05T21:51:13.573Z,71.30
2018-10-05T21:53:41.909Z,71.50
2018-10-05T21:56:10.207Z,71.60
2018-10-05T21:58:38.479Z,71.80
2018-10-05T22:01:06.741Z,72.00
2018-10-05T22:03:35.005Z,72.30
2018-10-05T22:06:03.237Z,72.60
2018-10-05T22:08:31.482Z,72.70
2018-10-05T22:10:59.755Z,73.00
2018-10-05T22:13:28.101Z,73.00
2018-10-05T22:15:56.327Z,73.00
2018-10-05T22:18:24.608Z,73.20
2018-10-05T22:20:52.853Z,73.00
2018-10-05T22:23:21.059Z,73.10
2018-10-05T22:25:49.306Z,72.90
2018-10-05T22:28:17.556Z,72.80
2018-10-05T22:30:45.916Z,72.70
2018-10-05T22:33:14.156Z,72.60
2018-10-05T22:38:17.012Z,72.60
2018-10-05T22:40:45.255Z,72.50
2018-10-05T22:43:13.484Z,72.70
2018-10-05T22:45:41.741Z,72.80
2018-10-05T22:48:09.978Z,72.90
2018-10-05T22:50:38.250Z,72.90
2018-10-05T22:53:06.506Z,72.90
2018-10-05T22:55:34.737Z,72.90
2018-10-05T22:58:02.995Z,72.90
2018-10-05T23:00:31.240Z,73.20
2018-10-05T23:02:59.502Z,73.30
2018-10-05T23:05:27.904Z,73.40
2018-10-05T23:07:56.158Z,73.50
2018-10-05T23:10:24.404Z,73.60
2018-10-05T23:12:52.654Z,73.70
2018-10-05T23:15:20.904Z,73.80
2018-10-05T23:17:49.143Z,73.90
2018-10-05T23:20:17.406Z,73.90
2018-10-05T23:22:45.612Z,74.00
2018-10-05T23:25:13.860Z,74.20
2018-10-05T23:27:42.113Z,74.40
2018-10-05T23:30:10.327Z,74.90
2018-10-05T23:32:38.569Z,75.10
2018-10-05T23:35:07.031Z,75.30
2018-10-05T23:37:35.282Z,75.60
2018-10-05T23:40:03.571Z,75.80
2018-10-05T23:42:31.887Z,75.80
2018-10-05T23:45:00.532Z,76.00
2018-10-05T23:47:28.821Z,76.30
2018-10-05T23:49:57.068Z,76.50
2018-10-05T23:52:39.361Z,76.80
2018-10-05T23:55:07.677Z,77.10
2018-10-05T23:57:36.734Z,77.10
